首页
METAR-TAF:

METAR-TAF

机场 :

Teslin, 育康省, 加拿大

纬度: 60-10N, 经度: 132-44W, 海拔: 711米

当前天气观测

该预报发布于12小时和17分钟前的00:00 UTC
静风
温度 3°C
湿度 75%
气压 1002 hPa
能見度: 32.2公里
少量云层高于2000英尺
散云层高于5300英尺

METAR: CYZW 200000Z 00000KT 20SM FEW020 SCT053 03/M01 A2959 RMK SC1SC5 LAST STFD OBS/NXT 201600Z SLP055

时间: 05:17 (12:17 UTC)

预报

该预报发布于18小时和38分钟前的17:39 UTC
预报有效从19日的 18点(UTC)到 19日的 24点(UTC)
风速5节,风向
能見度: 10公里
散云层高于800英尺
多云层高于2500英尺
短暂存在
从 19日的 18点(UTC)到 19日的 21点(UTC)
能見度: 4.8公里
多云层高于800英尺
多云层高于2500英尺
轻雾
从 19日的 2100点(UTC)
风速5节,风向南转南东
能見度: 10公里
散云层高于1500英尺
多云层高于3000英尺
短暂存在
从 19日的 21点(UTC)到 19日的 24点(UTC)
多云层高于1500英尺
多云层高于3000英尺

TAF: CYZW 191739Z 1918/1924 08005KT P6SM SCT008 BKN025 TEMPO 1918/1921 3SM BR BKN008 BKN025 FM192100 15005KT P6SM SCT015 BKN030 TEMPO 1921/1924 BKN015 BKN030 RMK NXT FCST WILL BE ISSUED AT 201745Z

超过4000个机场的气象观测和天气预报(METAR&TAF报告)。

可查询的气象台以黄色和红色小点在地图上表示。

将鼠标移到小点上方,可查看气象台名称。

然后点击查看天气观测和预报。

如需切换地图:点击带黑十字的绿色按钮放大地图;点击带横线的绿色按钮缩小地图;或者点击绿色箭头查看邻近地区的地图。


METAR-TAF: